Ana Sayfa
METAR-TAF:

METAR-TAF

Havaalanları :

New Bern, Kuzey Carolina, Amerika Birleşik Devletleri

Enlem: 35-04-03N, Boylam: 077-02-50W, yükseklik: 5 m

Güncel hava durumu gözlemi

Rapor saat 22:54 UTC de 1 saat ve 5 dakika önce yapıldı.
Sakin rüzgar
Sıcaklık 18°C
Nem 73%
Basınç 1017 hPa
Görüş mesafesi: 16.1 km
Açık gökyüzü

METAR: KEWN 232254Z 00000KT 10SM CLR 18/13 A3002 RMK AO2 SLP167 T01780133

Saat: 19:59 (23:59 UTC)

Tahmin

Rapor saat 23:21 UTC de 38 dakika önce yapıldı.
Ayın 24'si saat 00 UTC'den ayın 24'si saat 24 UTC'ye kadar geçerli Tahmin
Rüzgar kuzeydan kt
Görüş mesafesi: 10 km
Açık gökyüzü
Ayın 24'si saat 1800 UTC'den
Rüzgar güneydoğudan 6 kt
Görüş mesafesi: 10 km
3500 ft yükseklikte az bulutlu

TAF: KEWN 232321Z 2400/2424 00000KT P6SM SKC FM241800 14006KT P6SM FEW035

4.000'den fazla havaalanı için hava durumu gözlemleri ve tahminleri (METAR ve TAF raporları).

Kullanılabilir istasyonlar harita üzerinde sarı ve kırmızı noktalarla gösterilir.

İstasyonun adını görmek için fareyi noktanın üzerinde gezdirin.

Sonrasında hava gözlem ve tahminlerini görmek için tıklayın.

Haritayı değiştirmek için: yaklaştırmak için siyah artı işaretli yeşil düğmeye ve uzaklaştırmak için de eksi işaretli düğmeye hızla tıklayın; bitişik haritalar için yeşil okları kullanın.


METAR-TAF: